sensor_id;sensor_type;location;lat;lon;timestamp;pressure;altitude;pressure_sealevel;temperature;humidity
62462;BME280;48511;38.664;-9.202;2023-02-15T00:01:21;49960.94;;;-146.63;80.49
62462;BME280;48511;38.664;-9.202;2023-02-15T00:03:22;49990.56;;;-146.63;80.92
62462;BME280;48511;38.664;-9.202;2023-02-15T00:05:23;49976.75;;;-146.63;80.57
62462;BME280;48511;38.664;-9.202;2023-02-15T00:07:24;49947.13;;;-146.63;80.53
62462;BME280;48511;38.664;-9.202;2023-02-15T00:09:24;49988.59;;;-146.63;80.23
62462;BME280;48511;38.664;-9.202;2023-02-15T00:11:25;49968.84;;;-146.63;80.11
62462;BME280;48511;38.664;-9.202;2023-02-15T00:13:42;50012.25;;;-146.63;80.11
62462;BME280;48511;38.664;-9.202;2023-02-15T00:15:43;49976.75;;;-146.63;80.13
62462;BME280;48511;38.664;-9.202;2023-02-15T00:17:44;50012.25;;;-146.63;80.33
62462;BME280;48511;38.664;-9.202;2023-02-15T00:19:45;49933.31;;;-146.63;80.22
62462;BME280;48511;38.664;-9.202;2023-02-15T00:21:46;50008.31;;;-146.63;80.87
62462;BME280;48511;38.664;-9.202;2023-02-15T00:23:48;49966.88;;;-146.63;81.93
62462;BME280;48511;38.664;-9.202;2023-02-15T00:25:48;49984.63;;;-146.63;82.94
62462;BME280;48511;38.664;-9.202;2023-02-15T00:27:49;49988.59;;;-146.63;83.97
62462;BME280;48511;38.664;-9.202;2023-02-15T00:29:50;49988.59;;;-146.63;84.56
62462;BME280;48511;38.664;-9.202;2023-02-15T00:31:51;49992.53;;;-146.63;84.99
62462;BME280;48511;38.664;-9.202;2023-02-15T00:33:52;50002.41;;;-146.63;84.64
62462;BME280;48511;38.664;-9.202;2023-02-15T00:35:57;49970.81;;;-146.63;84.98
62462;BME280;48511;38.664;-9.202;2023-02-15T00:37:58;49990.56;;;-146.63;84.86
62462;BME280;48511;38.664;-9.202;2023-02-15T00:39:58;49970.81;;;-146.63;84.96
62462;BME280;48511;38.664;-9.202;2023-02-15T00:41:59;50000.44;;;-146.63;85.34
62462;BME280;48511;38.664;-9.202;2023-02-15T00:44:00;49972.78;;;-146.63;85.53
62462;BME280;48511;38.664;-9.202;2023-02-15T00:46:02;49980.69;;;-146.63;85.11
62462;BME280;48511;38.664;-9.202;2023-02-15T00:48:03;49972.78;;;-146.63;85.28
62462;BME280;48511;38.664;-9.202;2023-02-15T00:50:04;50006.34;;;-146.63;85.36
62462;BME280;48511;38.664;-9.202;2023-02-15T00:52:05;49958.97;;;-146.63;85.42
62462;BME280;48511;38.664;-9.202;2023-02-15T00:54:07;50006.34;;;-146.63;85.41
62462;BME280;48511;38.664;-9.202;2023-02-15T00:56:08;49949.09;;;-146.63;85.43
62462;BME280;48511;38.664;-9.202;2023-02-15T00:58:10;49980.69;;;-146.63;85.30
62462;BME280;48511;38.664;-9.202;2023-02-15T01:00:11;49962.91;;;-146.63;85.46
62462;BME280;48511;38.664;-9.202;2023-02-15T01:02:12;50004.38;;;-146.63;85.48
62462;BME280;48511;38.664;-9.202;2023-02-15T01:04:13;50018.19;;;-146.63;85.47
62462;BME280;48511;38.664;-9.202;2023-02-15T01:06:15;49974.75;;;-146.63;85.43
62462;BME280;48511;38.664;-9.202;2023-02-15T01:08:17;49980.69;;;-146.63;85.34
62462;BME280;48511;38.664;-9.202;2023-02-15T01:10:18;49984.63;;;-146.63;85.32
62462;BME280;48511;38.664;-9.202;2023-02-15T01:12:18;49972.78;;;-146.63;85.64
62462;BME280;48511;38.664;-9.202;2023-02-15T01:14:21;49986.59;;;-146.63;85.43
62462;BME280;48511;38.664;-9.202;2023-02-15T01:16:24;49998.44;;;-146.63;85.43
62462;BME280;48511;38.664;-9.202;2023-02-15T01:18:25;49976.75;;;-146.63;85.73
62462;BME280;48511;38.664;-9.202;2023-02-15T01:20:27;49966.88;;;-146.63;85.43
62462;BME280;48511;38.664;-9.202;2023-02-15T01:22:28;49984.63;;;-146.63;85.37
62462;BME280;48511;38.664;-9.202;2023-02-15T01:24:29;49990.56;;;-146.63;85.23
62462;BME280;48511;38.664;-9.202;2023-02-15T01:26:30;49957.00;;;-146.63;85.28
62462;BME280;48511;38.664;-9.202;2023-02-15T01:28:32;49976.75;;;-146.63;85.30
62462;BME280;48511;38.664;-9.202;2023-02-15T01:30:33;49974.75;;;-146.63;85.56
62462;BME280;48511;38.664;-9.202;2023-02-15T01:32:34;49945.16;;;-146.63;85.54
62462;BME280;48511;38.664;-9.202;2023-02-15T01:34:34;50004.38;;;-146.63;85.53
62462;BME280;48511;38.664;-9.202;2023-02-15T01:36:35;49960.94;;;-146.63;85.64
62462;BME280;48511;38.664;-9.202;2023-02-15T01:38:36;49974.75;;;-146.63;85.68
62462;BME280;48511;38.664;-9.202;2023-02-15T01:40:39;49945.16;;;-146.63;85.60
62462;BME280;48511;38.664;-9.202;2023-02-15T01:42:40;49984.63;;;-146.63;85.60
62462;BME280;48511;38.664;-9.202;2023-02-15T01:46:52;49988.59;;;-146.63;85.76
62462;BME280;48511;38.664;-9.202;2023-02-15T01:49:15;50002.41;;;-146.63;85.56
62462;BME280;48511;38.664;-9.202;2023-02-15T01:51:20;49988.59;;;-146.63;85.72
62462;BME280;48511;38.664;-9.202;2023-02-15T01:55:31;49964.91;;;-146.63;85.82
62462;BME280;48511;38.664;-9.202;2023-02-15T01:57:34;49974.75;;;-146.63;85.82
62462;BME280;48511;38.664;-9.202;2023-02-15T01:59:38;49996.47;;;-146.63;85.84
62462;BME280;48511;38.664;-9.202;2023-02-15T02:01:40;50000.44;;;-146.63;85.79
62462;BME280;48511;38.664;-9.202;2023-02-15T02:03:53;49992.53;;;-146.63;85.79
62462;BME280;48511;38.664;-9.202;2023-02-15T02:05:56;49978.72;;;-146.63;85.78
62462;BME280;48511;38.664;-9.202;2023-02-15T02:07:58;49984.63;;;-146.63;85.86
62462;BME280;48511;38.664;-9.202;2023-02-15T02:10:02;50000.44;;;-146.63;85.94
62462;BME280;48511;38.664;-9.202;2023-02-15T02:12:08;49972.78;;;-146.63;85.88
62462;BME280;48511;38.664;-9.202;2023-02-15T02:14:09;49978.72;;;-146.63;85.90
62462;BME280;48511;38.664;-9.202;2023-02-15T02:18:41;49980.69;;;-146.63;86.02
62462;BME280;48511;38.664;-9.202;2023-02-15T02:24:16;49980.69;;;-146.63;86.48
62462;BME280;48511;38.664;-9.202;2023-02-15T02:29:11;49988.59;;;-146.63;86.77
62462;BME280;48511;38.664;-9.202;2023-02-15T02:33:34;49986.59;;;-146.63;87.02
62462;BME280;48511;38.664;-9.202;2023-02-15T02:42:44;49976.75;;;-146.63;87.46
62462;BME280;48511;38.664;-9.202;2023-02-15T02:44:53;49994.50;;;-146.63;87.36
62462;BME280;48511;38.664;-9.202;2023-02-15T02:47:36;49988.59;;;-146.63;87.04
62462;BME280;48511;38.664;-9.202;2023-02-15T02:49:43;50006.34;;;-146.63;87.04
62462;BME280;48511;38.664;-9.202;2023-02-15T02:51:44;49980.69;;;-146.63;86.77
62462;BME280;48511;38.664;-9.202;2023-02-15T02:53:45;49994.50;;;-146.63;86.71
62462;BME280;48511;38.664;-9.202;2023-02-15T02:55:51;50024.09;;;-146.63;86.56
62462;BME280;48511;38.664;-9.202;2023-02-15T02:58:03;49988.59;;;-146.63;86.78
62462;BME280;48511;38.664;-9.202;2023-02-15T03:00:06;49984.63;;;-146.63;86.88
62462;BME280;48511;38.664;-9.202;2023-02-15T03:02:21;50008.31;;;-146.63;87.04
62462;BME280;48511;38.664;-9.202;2023-02-15T03:04:34;50004.38;;;-146.63;86.88
62462;BME280;48511;38.664;-9.202;2023-02-15T03:06:41;49984.63;;;-146.63;87.07
62462;BME280;48511;38.664;-9.202;2023-02-15T03:08:52;50020.16;;;-146.63;87.09
62462;BME280;48511;38.664;-9.202;2023-02-15T03:10:58;50016.22;;;-146.63;87.14
62462;BME280;48511;38.664;-9.202;2023-02-15T03:13:00;49978.72;;;-146.63;87.20
62462;BME280;48511;38.664;-9.202;2023-02-15T03:15:04;50006.34;;;-146.63;87.32
62462;BME280;48511;38.664;-9.202;2023-02-15T03:17:06;50033.97;;;-146.63;87.28
62462;BME280;48511;38.664;-9.202;2023-02-15T03:19:10;50000.44;;;-146.63;87.52
62462;BME280;48511;38.664;-9.202;2023-02-15T03:21:12;49972.78;;;-146.63;87.42
62462;BME280;48511;38.664;-9.202;2023-02-15T03:23:24;49976.75;;;-146.63;87.61
62462;BME280;48511;38.664;-9.202;2023-02-15T03:25:52;49998.44;;;-146.63;87.50
62462;BME280;48511;38.664;-9.202;2023-02-15T03:28:02;50024.09;;;-146.63;87.59
62462;BME280;48511;38.664;-9.202;2023-02-15T03:30:05;49976.75;;;-146.63;87.77
62462;BME280;48511;38.664;-9.202;2023-02-15T03:32:10;50000.44;;;-146.63;87.69
62462;BME280;48511;38.664;-9.202;2023-02-15T03:34:12;50024.09;;;-146.63;88.05
62462;BME280;48511;38.664;-9.202;2023-02-15T03:36:21;50008.31;;;-146.63;88.20
62462;BME280;48511;38.664;-9.202;2023-02-15T03:38:34;49968.84;;;-146.63;88.18
62462;BME280;48511;38.664;-9.202;2023-02-15T03:40:42;49978.72;;;-146.63;88.21
62462;BME280;48511;38.664;-9.202;2023-02-15T03:43:17;49992.53;;;-146.63;88.27
62462;BME280;48511;38.664;-9.202;2023-02-15T03:45:25;50020.16;;;-146.63;88.58
62462;BME280;48511;38.664;-9.202;2023-02-15T03:47:41;49992.53;;;-146.63;89.14
62462;BME280;48511;38.664;-9.202;2023-02-15T03:49:56;50043.84;;;-146.63;88.89
62462;BME280;48511;38.664;-9.202;2023-02-15T03:52:00;50016.22;;;-146.63;88.84
62462;BME280;48511;38.664;-9.202;2023-02-15T03:54:06;49980.69;;;-146.63;88.72
62462;BME280;48511;38.664;-9.202;2023-02-15T03:56:08;50016.22;;;-146.63;88.75
62462;BME280;48511;38.664;-9.202;2023-02-15T03:58:08;49986.59;;;-146.63;88.77
62462;BME280;48511;38.664;-9.202;2023-02-15T04:00:28;50032.00;;;-146.63;88.68
62462;BME280;48511;38.664;-9.202;2023-02-15T04:03:40;49996.47;;;-146.63;88.71
62462;BME280;48511;38.664;-9.202;2023-02-15T04:05:15;49982.66;;;-146.63;88.78
62462;BME280;48511;38.664;-9.202;2023-02-15T04:07:16;49986.59;;;-146.63;88.73
62462;BME280;48511;38.664;-9.202;2023-02-15T04:09:18;50043.84;;;-146.63;88.72
62462;BME280;48511;38.664;-9.202;2023-02-15T04:11:37;49972.78;;;-146.63;88.92
62462;BME280;48511;38.664;-9.202;2023-02-15T04:13:37;49992.53;;;-146.63;89.08
62462;BME280;48511;38.664;-9.202;2023-02-15T04:15:39;50006.34;;;-146.63;89.26
62462;BME280;48511;38.664;-9.202;2023-02-15T04:17:58;50014.25;;;-146.63;89.18
62462;BME280;48511;38.664;-9.202;2023-02-15T04:19:59;50028.06;;;-146.63;89.47
62462;BME280;48511;38.664;-9.202;2023-02-15T04:22:18;50012.25;;;-146.63;89.58
62462;BME280;48511;38.664;-9.202;2023-02-15T04:24:37;49990.56;;;-146.63;89.33
62462;BME280;48511;38.664;-9.202;2023-02-15T04:26:57;50028.06;;;-146.63;89.56
62462;BME280;48511;38.664;-9.202;2023-02-15T04:28:58;50022.13;;;-146.63;89.72
62462;BME280;48511;38.664;-9.202;2023-02-15T04:30:59;49984.63;;;-146.63;89.63
62462;BME280;48511;38.664;-9.202;2023-02-15T04:33:00;49984.63;;;-146.63;89.66
62462;BME280;48511;38.664;-9.202;2023-02-15T04:35:00;49984.63;;;-146.63;89.77
62462;BME280;48511;38.664;-9.202;2023-02-15T04:37:01;49980.69;;;-146.63;89.91
62462;BME280;48511;38.664;-9.202;2023-02-15T04:39:02;49988.59;;;-146.63;89.88
62462;BME280;48511;38.664;-9.202;2023-02-15T04:41:03;49976.75;;;-146.63;89.89
62462;BME280;48511;38.664;-9.202;2023-02-15T04:43:03;49968.84;;;-146.63;90.16
62462;BME280;48511;38.664;-9.202;2023-02-15T04:45:04;49976.75;;;-146.63;90.19
62462;BME280;48511;38.664;-9.202;2023-02-15T04:47:05;50016.22;;;-146.63;90.29
62462;BME280;48511;38.664;-9.202;2023-02-15T04:49:07;50008.31;;;-146.63;90.36
62462;BME280;48511;38.664;-9.202;2023-02-15T04:51:08;50016.22;;;-146.63;90.50
62462;BME280;48511;38.664;-9.202;2023-02-15T04:53:10;49992.53;;;-146.63;90.46
62462;BME280;48511;38.664;-9.202;2023-02-15T04:55:11;50010.28;;;-146.63;90.74
62462;BME280;48511;38.664;-9.202;2023-02-15T04:57:12;49980.69;;;-146.63;90.55
62462;BME280;48511;38.664;-9.202;2023-02-15T04:59:13;49992.53;;;-146.63;90.54
62462;BME280;48511;38.664;-9.202;2023-02-15T05:01:14;49994.50;;;-146.63;90.69
62462;BME280;48511;38.664;-9.202;2023-02-15T05:03:14;50016.22;;;-146.63;90.66
62462;BME280;48511;38.664;-9.202;2023-02-15T05:05:15;49996.47;;;-146.63;90.90
62462;BME280;48511;38.664;-9.202;2023-02-15T05:07:16;50016.22;;;-146.63;90.79
62462;BME280;48511;38.664;-9.202;2023-02-15T05:09:18;50004.38;;;-146.63;90.73
62462;BME280;48511;38.664;-9.202;2023-02-15T05:11:18;49968.84;;;-146.63;90.79
62462;BME280;48511;38.664;-9.202;2023-02-15T05:13:19;49972.78;;;-146.63;90.54
62462;BME280;48511;38.664;-9.202;2023-02-15T05:15:20;49992.53;;;-146.63;90.54
62462;BME280;48511;38.664;-9.202;2023-02-15T05:17:21;50030.03;;;-146.63;90.53
62462;BME280;48511;38.664;-9.202;2023-02-15T05:19:23;50012.25;;;-146.63;90.45
62462;BME280;48511;38.664;-9.202;2023-02-15T05:21:25;50016.22;;;-146.63;90.54
62462;BME280;48511;38.664;-9.202;2023-02-15T05:23:25;50012.25;;;-146.63;90.55
62462;BME280;48511;38.664;-9.202;2023-02-15T05:25:26;49974.75;;;-146.63;90.35
62462;BME280;48511;38.664;-9.202;2023-02-15T05:27:45;49996.47;;;-146.63;90.41
62462;BME280;48511;38.664;-9.202;2023-02-15T05:30:05;49996.47;;;-146.63;90.16
62462;BME280;48511;38.664;-9.202;2023-02-15T05:32:13;50028.06;;;-146.63;90.06
62462;BME280;48511;38.664;-9.202;2023-02-15T05:34:14;50018.19;;;-146.63;89.80
62462;BME280;48511;38.664;-9.202;2023-02-15T05:36:15;50016.22;;;-146.63;89.63
62462;BME280;48511;38.664;-9.202;2023-02-15T05:38:15;50020.16;;;-146.63;89.42
62462;BME280;48511;38.664;-9.202;2023-02-15T05:40:16;49984.63;;;-146.63;89.32
62462;BME280;48511;38.664;-9.202;2023-02-15T05:42:17;50028.06;;;-146.63;89.19
62462;BME280;48511;38.664;-9.202;2023-02-15T05:44:17;50008.31;;;-146.63;89.05
62462;BME280;48511;38.664;-9.202;2023-02-15T05:46:18;50002.41;;;-146.63;88.87
62462;BME280;48511;38.664;-9.202;2023-02-15T05:48:21;50024.09;;;-146.63;88.89
62462;BME280;48511;38.664;-9.202;2023-02-15T05:50:22;50043.84;;;-146.63;88.64
62462;BME280;48511;38.664;-9.202;2023-02-15T05:52:23;50000.44;;;-146.63;88.60
62462;BME280;48511;38.664;-9.202;2023-02-15T05:54:23;50020.16;;;-146.63;88.60
62462;BME280;48511;38.664;-9.202;2023-02-15T05:56:24;50010.28;;;-146.63;88.52
62462;BME280;48511;38.664;-9.202;2023-02-15T05:58:26;49992.53;;;-146.63;88.44
62462;BME280;48511;38.664;-9.202;2023-02-15T06:00:27;50008.31;;;-146.63;88.20
62462;BME280;48511;38.664;-9.202;2023-02-15T06:02:28;49984.63;;;-146.63;88.12
62462;BME280;48511;38.664;-9.202;2023-02-15T06:04:28;50032.00;;;-146.63;88.06
62462;BME280;48511;38.664;-9.202;2023-02-15T06:06:29;49994.50;;;-146.63;88.03
62462;BME280;48511;38.664;-9.202;2023-02-15T06:08:31;50016.22;;;-146.63;87.63
62462;BME280;48511;38.664;-9.202;2023-02-15T06:10:32;49994.50;;;-146.63;87.70
62462;BME280;48511;38.664;-9.202;2023-02-15T06:12:32;50032.00;;;-146.63;87.45
62462;BME280;48511;38.664;-9.202;2023-02-15T06:14:33;49957.00;;;-146.63;87.42
62462;BME280;48511;38.664;-9.202;2023-02-15T06:16:34;50035.94;;;-146.63;87.14
62462;BME280;48511;38.664;-9.202;2023-02-15T06:18:35;50024.09;;;-146.63;86.90
62462;BME280;48511;38.664;-9.202;2023-02-15T06:20:35;49984.63;;;-146.63;86.78
62462;BME280;48511;38.664;-9.202;2023-02-15T06:22:36;49988.59;;;-146.63;86.70
62462;BME280;48511;38.664;-9.202;2023-02-15T06:24:36;49990.56;;;-146.63;86.62
62462;BME280;48511;38.664;-9.202;2023-02-15T06:26:37;50028.06;;;-146.63;86.59
62462;BME280;48511;38.664;-9.202;2023-02-15T06:28:38;50035.94;;;-146.63;86.51
62462;BME280;48511;38.664;-9.202;2023-02-15T06:30:41;49992.53;;;-146.63;86.40
62462;BME280;48511;38.664;-9.202;2023-02-15T06:32:42;50012.25;;;-146.63;86.34
62462;BME280;48511;38.664;-9.202;2023-02-15T06:34:43;49988.59;;;-146.63;86.32
62462;BME280;48511;38.664;-9.202;2023-02-15T06:36:43;50051.75;;;-146.63;86.35
62462;BME280;48511;38.664;-9.202;2023-02-15T06:38:44;50018.19;;;-146.63;86.42
62462;BME280;48511;38.664;-9.202;2023-02-15T06:40:45;50008.31;;;-146.63;86.10
62462;BME280;48511;38.664;-9.202;2023-02-15T06:42:45;50020.16;;;-146.63;86.04
62462;BME280;48511;38.664;-9.202;2023-02-15T06:44:46;50020.16;;;-146.63;86.13
62462;BME280;48511;38.664;-9.202;2023-02-15T06:46:47;50047.78;;;-146.63;86.15
62462;BME280;48511;38.664;-9.202;2023-02-15T06:48:48;50000.44;;;-146.63;85.98
62462;BME280;48511;38.664;-9.202;2023-02-15T06:50:48;50000.44;;;-146.63;85.86
62462;BME280;48511;38.664;-9.202;2023-02-15T06:52:49;50016.22;;;-146.63;85.68
62462;BME280;48511;38.664;-9.202;2023-02-15T06:54:55;50016.22;;;-146.63;85.86
62462;BME280;48511;38.664;-9.202;2023-02-15T06:56:56;50047.78;;;-146.63;85.45
62462;BME280;48511;38.664;-9.202;2023-02-15T06:58:56;50002.41;;;-146.63;85.40
62462;BME280;48511;38.664;-9.202;2023-02-15T07:00:57;50055.69;;;-146.63;85.27
62462;BME280;48511;38.664;-9.202;2023-02-15T07:02:58;50016.22;;;-146.63;84.99
62462;BME280;48511;38.664;-9.202;2023-02-15T07:04:59;50020.16;;;-146.63;84.66
62462;BME280;48511;38.664;-9.202;2023-02-15T07:07:00;50016.22;;;-146.63;84.50
62462;BME280;48511;38.664;-9.202;2023-02-15T07:09:01;49980.69;;;-146.63;84.01
62462;BME280;48511;38.664;-9.202;2023-02-15T07:11:02;49978.72;;;-146.63;83.68
62462;BME280;48511;38.664;-9.202;2023-02-15T07:13:22;50016.22;;;-146.63;83.77
62462;BME280;48511;38.664;-9.202;2023-02-15T07:15:23;49968.84;;;-146.63;83.87
62462;BME280;48511;38.664;-9.202;2023-02-15T07:17:23;49996.47;;;-146.63;83.59
62462;BME280;48511;38.664;-9.202;2023-02-15T07:19:25;49976.75;;;-146.63;83.19
62462;BME280;48511;38.664;-9.202;2023-02-15T07:21:25;50024.09;;;-146.63;83.18
62462;BME280;48511;38.664;-9.202;2023-02-15T07:23:27;49998.44;;;-146.63;83.21
62462;BME280;48511;38.664;-9.202;2023-02-15T07:25:28;50000.44;;;-146.63;83.06
62462;BME280;48511;38.664;-9.202;2023-02-15T07:27:28;50016.22;;;-146.63;83.14
62462;BME280;48511;38.664;-9.202;2023-02-15T07:29:29;50016.22;;;-146.63;82.91
62462;BME280;48511;38.664;-9.202;2023-02-15T07:31:30;50014.25;;;-146.63;82.86
62462;BME280;48511;38.664;-9.202;2023-02-15T07:33:32;49988.59;;;-146.63;82.86
62462;BME280;48511;38.664;-9.202;2023-02-15T07:35:33;50000.44;;;-146.63;82.89
62462;BME280;48511;38.664;-9.202;2023-02-15T07:37:34;50000.44;;;-146.63;82.78
62462;BME280;48511;38.664;-9.202;2023-02-15T07:39:35;50028.06;;;-146.63;82.72
62462;BME280;48511;38.664;-9.202;2023-02-15T07:41:35;50016.22;;;-146.63;82.25
62462;BME280;48511;38.664;-9.202;2023-02-15T07:43:44;49992.53;;;-146.63;82.30
62462;BME280;48511;38.664;-9.202;2023-02-15T07:45:45;50035.94;;;-146.63;82.18
62462;BME280;48511;38.664;-9.202;2023-02-15T07:47:46;50016.22;;;-146.63;82.26
62462;BME280;48511;38.664;-9.202;2023-02-15T07:49:47;50004.38;;;-146.63;82.14
62462;BME280;48511;38.664;-9.202;2023-02-15T07:51:49;50020.16;;;-146.63;82.04
62462;BME280;48511;38.664;-9.202;2023-02-15T07:53:50;50018.19;;;-146.63;81.46
62462;BME280;48511;38.664;-9.202;2023-02-15T07:55:52;49984.63;;;-146.63;81.09
62462;BME280;48511;38.664;-9.202;2023-02-15T07:57:52;50008.31;;;-146.63;81.10
62462;BME280;48511;38.664;-9.202;2023-02-15T07:59:56;50028.06;;;-146.63;80.54
62462;BME280;48511;38.664;-9.202;2023-02-15T08:01:57;49974.75;;;-146.63;80.47
62462;BME280;48511;38.664;-9.202;2023-02-15T08:03:58;50008.31;;;-146.63;80.43
62462;BME280;48511;38.664;-9.202;2023-02-15T08:05:59;49988.59;;;-146.63;79.86
62462;BME280;48511;38.664;-9.202;2023-02-15T08:08:00;50014.25;;;-146.63;79.52
62462;BME280;48511;38.664;-9.202;2023-02-15T08:10:01;50000.44;;;-146.63;79.59
62462;BME280;48511;38.664;-9.202;2023-02-15T08:12:02;50016.22;;;-146.63;79.16
62462;BME280;48511;38.664;-9.202;2023-02-15T08:16:08;49994.50;;;-146.63;78.63
62462;BME280;48511;38.664;-9.202;2023-02-15T08:18:08;49958.97;;;-146.63;78.04
62462;BME280;48511;38.664;-9.202;2023-02-15T08:20:09;50002.41;;;-146.63;78.25
62462;BME280;48511;38.664;-9.202;2023-02-15T08:22:12;50024.09;;;-146.63;78.32
62462;BME280;48511;38.664;-9.202;2023-02-15T08:24:18;50051.75;;;-146.63;78.13
62462;BME280;48511;38.664;-9.202;2023-02-15T08:26:23;50014.25;;;-146.63;77.65
62462;BME280;48511;38.664;-9.202;2023-02-15T08:28:26;49992.53;;;-146.63;77.68
62462;BME280;48511;38.664;-9.202;2023-02-15T08:30:27;50037.94;;;-146.63;77.65
62462;BME280;48511;38.664;-9.202;2023-02-15T08:32:28;50045.81;;;-146.63;77.32
62462;BME280;48511;38.664;-9.202;2023-02-15T08:34:31;50014.25;;;-146.63;77.09
62462;BME280;48511;38.664;-9.202;2023-02-15T08:36:33;49992.53;;;-146.63;77.21
62462;BME280;48511;38.664;-9.202;2023-02-15T08:38:34;50008.31;;;-146.63;76.90
62462;BME280;48511;38.664;-9.202;2023-02-15T08:40:35;50004.38;;;-146.63;77.00
62462;BME280;48511;38.664;-9.202;2023-02-15T08:42:38;50004.38;;;-146.63;76.71
62462;BME280;48511;38.664;-9.202;2023-02-15T08:44:39;50000.44;;;-146.63;76.64
62462;BME280;48511;38.664;-9.202;2023-02-15T08:46:42;49980.69;;;-146.63;76.04
62462;BME280;48511;38.664;-9.202;2023-02-15T08:48:43;50030.03;;;-146.63;75.33
62462;BME280;48511;38.664;-9.202;2023-02-15T08:50:44;50043.84;;;-146.63;75.16
62462;BME280;48511;38.664;-9.202;2023-02-15T08:52:45;49984.63;;;-146.63;74.88
62462;BME280;48511;38.664;-9.202;2023-02-15T08:54:48;49960.94;;;-146.63;74.99
62462;BME280;48511;38.664;-9.202;2023-02-15T08:56:54;50006.34;;;-146.63;74.34
62462;BME280;48511;38.664;-9.202;2023-02-15T08:58:55;49998.44;;;-146.63;74.24
62462;BME280;48511;38.664;-9.202;2023-02-15T09:01:00;49988.59;;;-146.63;74.09
62462;BME280;48511;38.664;-9.202;2023-02-15T09:03:02;50004.38;;;-146.63;73.81
62462;BME280;48511;38.664;-9.202;2023-02-15T09:05:03;50010.28;;;-146.63;73.77
62462;BME280;48511;38.664;-9.202;2023-02-15T09:07:04;50000.44;;;-146.63;73.11
62462;BME280;48511;38.664;-9.202;2023-02-15T09:09:06;49992.53;;;-146.63;72.91
62462;BME280;48511;38.664;-9.202;2023-02-15T09:11:09;49984.63;;;-146.63;72.75
62462;BME280;48511;38.664;-9.202;2023-02-15T09:13:10;50028.06;;;-146.63;72.71
62462;BME280;48511;38.664;-9.202;2023-02-15T09:15:13;50016.22;;;-146.63;72.44
62462;BME280;48511;38.664;-9.202;2023-02-15T09:17:14;50002.41;;;-146.63;72.13
62462;BME280;48511;38.664;-9.202;2023-02-15T09:19:19;49996.47;;;-146.63;72.09
62462;BME280;48511;38.664;-9.202;2023-02-15T09:21:23;49978.72;;;-146.63;72.04
62462;BME280;48511;38.664;-9.202;2023-02-15T09:23:24;50012.25;;;-146.63;71.51
62462;BME280;48511;38.664;-9.202;2023-02-15T09:25:25;50012.25;;;-146.63;71.23
62462;BME280;48511;38.664;-9.202;2023-02-15T09:27:26;50006.34;;;-146.63;70.73
62462;BME280;48511;38.664;-9.202;2023-02-15T09:29:27;50008.31;;;-146.63;70.26
62462;BME280;48511;38.664;-9.202;2023-02-15T09:31:39;50004.38;;;-146.63;69.37
62462;BME280;48511;38.664;-9.202;2023-02-15T09:33:43;50035.94;;;-146.63;69.21
62462;BME280;48511;38.664;-9.202;2023-02-15T09:35:44;49990.56;;;-146.63;69.41
62462;BME280;48511;38.664;-9.202;2023-02-15T09:37:45;50030.03;;;-146.63;68.40
62462;BME280;48511;38.664;-9.202;2023-02-15T09:39:46;49980.69;;;-146.63;68.35
62462;BME280;48511;38.664;-9.202;2023-02-15T09:45:34;49962.91;;;-146.63;68.69
62462;BME280;48511;38.664;-9.202;2023-02-15T09:47:26;49984.63;;;-146.63;68.51
62462;BME280;48511;38.664;-9.202;2023-02-15T09:51:51;50012.25;;;-146.63;67.47
62462;BME280;48511;38.664;-9.202;2023-02-15T09:54:03;49986.59;;;-146.63;67.72
62462;BME280;48511;38.664;-9.202;2023-02-15T09:56:32;50028.06;;;-146.63;67.97
62462;BME280;48511;38.664;-9.202;2023-02-15T10:08:05;50032.00;;;-146.63;65.56
62462;BME280;48511;38.664;-9.202;2023-02-15T10:26:04;49996.47;;;-146.63;61.45
62462;BME280;48511;38.664;-9.202;2023-02-15T10:28:18;50016.22;;;-146.63;60.87
62462;BME280;48511;38.664;-9.202;2023-02-15T10:30:50;49982.66;;;-146.63;60.44
62462;BME280;48511;38.664;-9.202;2023-02-15T10:33:03;49990.56;;;-146.63;58.60
62462;BME280;48511;38.664;-9.202;2023-02-15T10:57:07;49972.78;;;-146.63;55.80
62462;BME280;48511;38.664;-9.202;2023-02-15T11:02:00;49990.56;;;-146.63;54.17
62462;BME280;48511;38.664;-9.202;2023-02-15T11:04:36;50024.09;;;-146.63;53.99
62462;BME280;48511;38.664;-9.202;2023-02-15T11:06:44;49992.53;;;-146.63;53.79
62462;BME280;48511;38.664;-9.202;2023-02-15T11:08:54;50000.44;;;-146.63;53.36
62462;BME280;48511;38.664;-9.202;2023-02-15T11:11:00;49949.09;;;-146.63;52.70
62462;BME280;48511;38.664;-9.202;2023-02-15T11:13:09;49994.50;;;-146.63;52.35
62462;BME280;48511;38.664;-9.202;2023-02-15T11:17:38;49964.91;;;-146.63;52.80
62462;BME280;48511;38.664;-9.202;2023-02-15T11:20:33;50004.38;;;-146.63;52.93
62462;BME280;48511;38.664;-9.202;2023-02-15T11:22:18;50026.09;;;-146.63;52.73
62462;BME280;48511;38.664;-9.202;2023-02-15T11:24:21;50010.28;;;-146.63;52.44
62462;BME280;48511;38.664;-9.202;2023-02-15T11:26:32;50004.38;;;-146.63;52.15
62462;BME280;48511;38.664;-9.202;2023-02-15T11:28:41;49988.59;;;-146.63;52.70
62462;BME280;48511;38.664;-9.202;2023-02-15T11:30:47;49992.53;;;-146.63;51.86
62462;BME280;48511;38.664;-9.202;2023-02-15T11:33:12;49978.72;;;-146.63;52.31
62462;BME280;48511;38.664;-9.202;2023-02-15T11:35:31;49976.75;;;-146.63;51.91
62462;BME280;48511;38.664;-9.202;2023-02-15T11:37:43;49937.25;;;-146.63;51.88
62462;BME280;48511;38.664;-9.202;2023-02-15T11:39:46;49988.59;;;-146.63;52.04
62462;BME280;48511;38.664;-9.202;2023-02-15T11:41:54;49996.47;;;-146.63;51.12
62462;BME280;48511;38.664;-9.202;2023-02-15T11:44:01;50004.38;;;-146.63;51.20
62462;BME280;48511;38.664;-9.202;2023-02-15T11:46:07;50006.34;;;-146.63;50.70
62462;BME280;48511;38.664;-9.202;2023-02-15T11:48:12;50016.22;;;-146.63;50.56
62462;BME280;48511;38.664;-9.202;2023-02-15T11:52:36;49968.84;;;-146.63;49.55
62462;BME280;48511;38.664;-9.202;2023-02-15T11:54:42;50006.34;;;-146.63;49.09
62462;BME280;48511;38.664;-9.202;2023-02-15T11:56:44;50028.06;;;-146.63;49.03
62462;BME280;48511;38.664;-9.202;2023-02-15T11:59:01;49984.63;;;-146.63;49.52